Bristol, TN (37620)

12:05 PM EDT on May 26, 2015 (GMT -0400)
Mount Area | | Change Station
CLOSE
Current Station
Personal Weather Station
Location: Bristol, TN
Elevation: 1614 ft
Nearby Weather Stations

Elev 1614 ft 36.57 °N, 82.25 °W | Updated 5 seconds ago

Partly Cloudy
Partly Cloudy
77.5 °F
Feels Like 79 °F
N
5.4
Wind Variable Wind from WSW
Gusts 7.4 mph

Today
High -- | Low -- °F
--% Chance of Precip.
Yesterday
High -- | Low -- °F
Precip. -- in
6:14 AM 8:37 PM
First Quarter, 59% visible
Pressure 30.28 in
Visibility 10.0 miles
Clouds Scattered Clouds 2700 ft
Heat Index 79 °F
Dew Point 65 °F
Humidity 65%
Rainfall 0.05 in
Snow Depth Not available.
UV 7.0 out of 12
Pollen 1.00 out of 12
Air Quality Not available.
Flu Activity Sporadic
METAR KVJI 261555Z AUTO 22005KT 10SM SCT027 26/19 A3028 RMK AO2 T02570185

More Conditions Fewer Conditions

Pressure 30.28 in
Visibility 10.0 miles
Clouds Scattered Clouds 2700 ft
Heat Index 79 °F
Dew Point 65 °F
Humidity 65%
Rainfall 0.05 in
Snow Depth Not available.
UV 7.0 out of 12
Pollen 1.00 out of 12
Air Quality Not available.
Flu Activity Sporadic
METAR KVJI 261555Z AUTO 22005KT 10SM SCT027 26/19 A3028 RMK AO2 T02570185

More Conditions Fewer Conditions

10-Day Weather Forecast

Almanac

Astronomy

May. 26, 2015 Rise Set
Actual Time
Civil Twilight
Nautical Twilight
Astronomical Twilight
Moon
Length of Visible Light
Length of Day
Tomorrow will be .
, % of the Moon is Illuminated

Today's Extremes

State Highs State Lows

Community

WunderPhotos

Upload Photos

1,824,375 photos uploaded!

WunderBlogs® & News

Nearby

Air Quality

  Air Quality AQ Index Pollutant
Not available.

Snow Depth

Station Depth Elevation

Earthquake Activity

City Distance Mag. Time & Date
Minimum magnitude displayed is 2.5.

Coastal Water Temperatures

Place Temperature

Stations

Nearby Weather Stations

Station Location Temp. Windchill Dew Point Humidity Wind Precip. Elev Updated Type